sensor_id;sensor_type;location;lat;lon;timestamp;P1;durP1;ratioP1;P2;durP2;ratioP2
54201;SDS011;40108;53.152;5.844;2023-07-30T00:02:17;37.17;;;8.45;;
54201;SDS011;40108;53.152;5.844;2023-07-30T00:04:43;38.53;;;8.98;;
54201;SDS011;40108;53.152;5.844;2023-07-30T00:07:10;39.33;;;8.65;;
54201;SDS011;40108;53.152;5.844;2023-07-30T00:09:36;39.35;;;9.25;;
54201;SDS011;40108;53.152;5.844;2023-07-30T00:12:03;43.55;;;9.45;;
54201;SDS011;40108;53.152;5.844;2023-07-30T00:14:32;41.47;;;9.43;;
54201;SDS011;40108;53.152;5.844;2023-07-30T00:16:58;44.67;;;9.25;;
54201;SDS011;40108;53.152;5.844;2023-07-30T00:19:24;43.35;;;9.88;;
54201;SDS011;40108;53.152;5.844;2023-07-30T00:21:50;45.22;;;9.20;;
54201;SDS011;40108;53.152;5.844;2023-07-30T00:24:16;45.80;;;9.13;;
54201;SDS011;40108;53.152;5.844;2023-07-30T00:26:41;50.22;;;9.68;;
54201;SDS011;40108;53.152;5.844;2023-07-30T00:29:07;54.13;;;9.32;;
54201;SDS011;40108;53.152;5.844;2023-07-30T00:31:33;46.95;;;9.02;;
54201;SDS011;40108;53.152;5.844;2023-07-30T00:33:59;47.20;;;9.98;;
54201;SDS011;40108;53.152;5.844;2023-07-30T00:36:24;51.72;;;10.45;;
54201;SDS011;40108;53.152;5.844;2023-07-30T00:38:50;43.47;;;9.30;;
54201;SDS011;40108;53.152;5.844;2023-07-30T00:41:16;41.97;;;9.45;;
54201;SDS011;40108;53.152;5.844;2023-07-30T00:43:41;45.63;;;9.18;;
54201;SDS011;40108;53.152;5.844;2023-07-30T00:46:07;37.65;;;9.02;;
54201;SDS011;40108;53.152;5.844;2023-07-30T00:48:33;48.45;;;9.88;;
54201;SDS011;40108;53.152;5.844;2023-07-30T00:50:59;40.40;;;8.43;;
54201;SDS011;40108;53.152;5.844;2023-07-30T00:53:28;50.83;;;9.85;;
54201;SDS011;40108;53.152;5.844;2023-07-30T00:55:55;50.22;;;9.60;;
54201;SDS011;40108;53.152;5.844;2023-07-30T00:58:21;45.83;;;9.77;;
54201;SDS011;40108;53.152;5.844;2023-07-30T01:00:47;41.47;;;8.77;;
54201;SDS011;40108;53.152;5.844;2023-07-30T01:03:13;44.25;;;9.45;;
54201;SDS011;40108;53.152;5.844;2023-07-30T01:05:39;53.95;;;8.90;;
54201;SDS011;40108;53.152;5.844;2023-07-30T01:08:05;40.78;;;8.43;;
54201;SDS011;40108;53.152;5.844;2023-07-30T01:10:31;44.63;;;9.57;;
54201;SDS011;40108;53.152;5.844;2023-07-30T01:13:01;45.47;;;8.82;;
54201;SDS011;40108;53.152;5.844;2023-07-30T01:15:28;48.42;;;8.55;;
54201;SDS011;40108;53.152;5.844;2023-07-30T01:17:55;42.42;;;8.40;;
54201;SDS011;40108;53.152;5.844;2023-07-30T01:20:21;34.72;;;7.75;;
54201;SDS011;40108;53.152;5.844;2023-07-30T01:22:47;45.53;;;8.40;;
54201;SDS011;40108;53.152;5.844;2023-07-30T01:25:13;37.67;;;8.05;;
54201;SDS011;40108;53.152;5.844;2023-07-30T01:27:40;42.63;;;7.75;;
54201;SDS011;40108;53.152;5.844;2023-07-30T01:32:48;34.83;;;6.63;;
54201;SDS011;40108;53.152;5.844;2023-07-30T01:35:18;30.23;;;7.60;;
54201;SDS011;40108;53.152;5.844;2023-07-30T01:37:51;45.08;;;7.78;;
54201;SDS011;40108;53.152;5.844;2023-07-30T01:40:19;40.92;;;7.72;;
54201;SDS011;40108;53.152;5.844;2023-07-30T01:42:45;44.42;;;8.07;;
54201;SDS011;40108;53.152;5.844;2023-07-30T01:45:11;34.63;;;6.47;;
54201;SDS011;40108;53.152;5.844;2023-07-30T01:47:36;43.70;;;7.18;;
54201;SDS011;40108;53.152;5.844;2023-07-30T01:50:02;47.72;;;8.02;;
54201;SDS011;40108;53.152;5.844;2023-07-30T01:52:28;50.08;;;6.72;;
54201;SDS011;40108;53.152;5.844;2023-07-30T01:54:54;36.95;;;7.22;;
54201;SDS011;40108;53.152;5.844;2023-07-30T01:57:21;43.80;;;8.27;;
54201;SDS011;40108;53.152;5.844;2023-07-30T01:59:47;40.25;;;6.78;;
54201;SDS011;40108;53.152;5.844;2023-07-30T02:02:12;38.85;;;7.15;;
54201;SDS011;40108;53.152;5.844;2023-07-30T02:04:38;42.78;;;7.97;;
54201;SDS011;40108;53.152;5.844;2023-07-30T02:07:04;37.25;;;7.40;;
54201;SDS011;40108;53.152;5.844;2023-07-30T02:09:29;38.97;;;7.18;;
54201;SDS011;40108;53.152;5.844;2023-07-30T02:11:55;33.85;;;7.80;;
54201;SDS011;40108;53.152;5.844;2023-07-30T02:14:21;31.23;;;6.32;;
54201;SDS011;40108;53.152;5.844;2023-07-30T02:16:46;30.15;;;6.63;;
54201;SDS011;40108;53.152;5.844;2023-07-30T02:19:12;43.03;;;7.53;;
54201;SDS011;40108;53.152;5.844;2023-07-30T02:21:38;37.58;;;7.68;;
54201;SDS011;40108;53.152;5.844;2023-07-30T02:24:07;29.25;;;6.60;;
54201;SDS011;40108;53.152;5.844;2023-07-30T02:26:36;35.53;;;7.70;;
54201;SDS011;40108;53.152;5.844;2023-07-30T02:29:02;42.22;;;7.10;;
54201;SDS011;40108;53.152;5.844;2023-07-30T02:31:27;45.63;;;6.68;;
54201;SDS011;40108;53.152;5.844;2023-07-30T02:33:53;34.78;;;7.40;;
54201;SDS011;40108;53.152;5.844;2023-07-30T02:36:19;42.53;;;7.18;;
54201;SDS011;40108;53.152;5.844;2023-07-30T02:38:44;38.70;;;7.18;;
54201;SDS011;40108;53.152;5.844;2023-07-30T02:41:10;42.42;;;6.97;;
54201;SDS011;40108;53.152;5.844;2023-07-30T02:43:36;36.90;;;6.60;;
54201;SDS011;40108;53.152;5.844;2023-07-30T02:46:01;39.58;;;7.88;;
54201;SDS011;40108;53.152;5.844;2023-07-30T02:48:27;32.30;;;6.40;;
54201;SDS011;40108;53.152;5.844;2023-07-30T02:50:53;44.45;;;7.20;;
54201;SDS011;40108;53.152;5.844;2023-07-30T02:53:18;41.90;;;6.90;;
54201;SDS011;40108;53.152;5.844;2023-07-30T02:55:44;33.03;;;6.65;;
54201;SDS011;40108;53.152;5.844;2023-07-30T02:58:10;43.08;;;8.35;;
54201;SDS011;40108;53.152;5.844;2023-07-30T03:00:35;38.40;;;6.40;;
54201;SDS011;40108;53.152;5.844;2023-07-30T03:03:02;36.17;;;6.78;;
54201;SDS011;40108;53.152;5.844;2023-07-30T03:05:27;31.00;;;6.47;;
54201;SDS011;40108;53.152;5.844;2023-07-30T03:07:53;31.23;;;5.65;;
54201;SDS011;40108;53.152;5.844;2023-07-30T03:10:19;35.70;;;5.78;;
54201;SDS011;40108;53.152;5.844;2023-07-30T03:12:45;25.10;;;5.40;;
54201;SDS011;40108;53.152;5.844;2023-07-30T03:15:10;27.23;;;5.75;;
54201;SDS011;40108;53.152;5.844;2023-07-30T03:17:36;37.58;;;6.13;;
54201;SDS011;40108;53.152;5.844;2023-07-30T03:20:02;38.97;;;6.32;;
54201;SDS011;40108;53.152;5.844;2023-07-30T03:22:29;31.45;;;6.10;;
54201;SDS011;40108;53.152;5.844;2023-07-30T03:24:55;36.03;;;5.25;;
54201;SDS011;40108;53.152;5.844;2023-07-30T03:27:20;35.92;;;5.80;;
54201;SDS011;40108;53.152;5.844;2023-07-30T03:29:46;34.65;;;5.72;;
54201;SDS011;40108;53.152;5.844;2023-07-30T03:32:12;26.55;;;4.80;;
54201;SDS011;40108;53.152;5.844;2023-07-30T03:34:37;34.67;;;5.35;;
54201;SDS011;40108;53.152;5.844;2023-07-30T03:37:03;26.33;;;5.53;;
54201;SDS011;40108;53.152;5.844;2023-07-30T03:39:29;24.90;;;5.03;;
54201;SDS011;40108;53.152;5.844;2023-07-30T03:41:55;25.90;;;5.05;;
54201;SDS011;40108;53.152;5.844;2023-07-30T03:44:20;24.05;;;4.82;;
54201;SDS011;40108;53.152;5.844;2023-07-30T03:46:46;27.90;;;5.15;;
54201;SDS011;40108;53.152;5.844;2023-07-30T03:49:12;25.75;;;4.68;;
54201;SDS011;40108;53.152;5.844;2023-07-30T03:51:38;21.35;;;4.20;;
54201;SDS011;40108;53.152;5.844;2023-07-30T03:54:04;24.85;;;4.10;;
54201;SDS011;40108;53.152;5.844;2023-07-30T03:56:30;24.85;;;3.85;;
54201;SDS011;40108;53.152;5.844;2023-07-30T03:58:55;18.58;;;3.70;;
54201;SDS011;40108;53.152;5.844;2023-07-30T04:01:21;19.88;;;3.78;;
54201;SDS011;40108;53.152;5.844;2023-07-30T04:03:47;18.45;;;3.38;;
54201;SDS011;40108;53.152;5.844;2023-07-30T04:06:13;22.13;;;3.90;;
54201;SDS011;40108;53.152;5.844;2023-07-30T04:08:39;20.67;;;3.83;;
54201;SDS011;40108;53.152;5.844;2023-07-30T04:11:04;16.20;;;3.22;;
54201;SDS011;40108;53.152;5.844;2023-07-30T04:13:30;21.17;;;3.20;;
54201;SDS011;40108;53.152;5.844;2023-07-30T04:15:56;20.55;;;2.88;;
54201;SDS011;40108;53.152;5.844;2023-07-30T04:18:22;19.02;;;3.15;;
54201;SDS011;40108;53.152;5.844;2023-07-30T04:20:48;14.85;;;2.55;;
54201;SDS011;40108;53.152;5.844;2023-07-30T04:23:14;15.45;;;2.97;;
54201;SDS011;40108;53.152;5.844;2023-07-30T04:25:40;13.80;;;2.53;;
54201;SDS011;40108;53.152;5.844;2023-07-30T04:28:05;20.80;;;2.65;;
54201;SDS011;40108;53.152;5.844;2023-07-30T04:30:32;17.83;;;2.63;;
54201;SDS011;40108;53.152;5.844;2023-07-30T04:32:57;11.48;;;2.17;;
54201;SDS011;40108;53.152;5.844;2023-07-30T04:35:23;16.98;;;2.60;;
54201;SDS011;40108;53.152;5.844;2023-07-30T04:37:49;16.13;;;2.30;;
54201;SDS011;40108;53.152;5.844;2023-07-30T04:40:15;15.88;;;2.38;;
54201;SDS011;40108;53.152;5.844;2023-07-30T04:42:40;14.55;;;2.30;;
54201;SDS011;40108;53.152;5.844;2023-07-30T04:45:06;12.35;;;2.20;;
54201;SDS011;40108;53.152;5.844;2023-07-30T04:47:32;18.27;;;2.28;;
54201;SDS011;40108;53.152;5.844;2023-07-30T04:49:58;13.07;;;2.08;;
54201;SDS011;40108;53.152;5.844;2023-07-30T04:52:24;17.35;;;2.67;;
54201;SDS011;40108;53.152;5.844;2023-07-30T04:54:49;14.48;;;2.10;;
54201;SDS011;40108;53.152;5.844;2023-07-30T04:57:15;18.05;;;2.05;;
54201;SDS011;40108;53.152;5.844;2023-07-30T04:59:41;12.80;;;2.40;;
54201;SDS011;40108;53.152;5.844;2023-07-30T05:02:06;15.30;;;2.50;;
54201;SDS011;40108;53.152;5.844;2023-07-30T05:04:32;17.77;;;2.58;;
54201;SDS011;40108;53.152;5.844;2023-07-30T05:06:58;15.32;;;2.05;;
54201;SDS011;40108;53.152;5.844;2023-07-30T05:09:24;11.27;;;2.03;;
54201;SDS011;40108;53.152;5.844;2023-07-30T05:11:49;14.88;;;2.10;;
54201;SDS011;40108;53.152;5.844;2023-07-30T05:14:15;16.05;;;2.42;;
54201;SDS011;40108;53.152;5.844;2023-07-30T05:16:41;13.48;;;2.33;;
54201;SDS011;40108;53.152;5.844;2023-07-30T05:19:06;11.07;;;2.10;;
54201;SDS011;40108;53.152;5.844;2023-07-30T05:21:33;15.15;;;2.63;;
54201;SDS011;40108;53.152;5.844;2023-07-30T05:23:59;14.88;;;2.38;;
54201;SDS011;40108;53.152;5.844;2023-07-30T05:26:24;12.48;;;2.20;;
54201;SDS011;40108;53.152;5.844;2023-07-30T05:28:50;15.65;;;2.38;;
54201;SDS011;40108;53.152;5.844;2023-07-30T05:31:16;15.27;;;2.03;;
54201;SDS011;40108;53.152;5.844;2023-07-30T05:33:41;14.82;;;2.22;;
54201;SDS011;40108;53.152;5.844;2023-07-30T05:36:07;12.52;;;1.83;;
54201;SDS011;40108;53.152;5.844;2023-07-30T05:38:33;12.30;;;2.15;;
54201;SDS011;40108;53.152;5.844;2023-07-30T05:40:59;9.05;;;1.80;;
54201;SDS011;40108;53.152;5.844;2023-07-30T05:43:25;14.02;;;2.70;;
54201;SDS011;40108;53.152;5.844;2023-07-30T05:45:51;17.13;;;2.60;;
54201;SDS011;40108;53.152;5.844;2023-07-30T05:48:17;16.27;;;2.47;;
54201;SDS011;40108;53.152;5.844;2023-07-30T05:50:42;9.85;;;2.33;;
54201;SDS011;40108;53.152;5.844;2023-07-30T05:53:08;13.00;;;2.75;;
54201;SDS011;40108;53.152;5.844;2023-07-30T05:55:34;16.60;;;2.50;;
54201;SDS011;40108;53.152;5.844;2023-07-30T05:57:59;13.20;;;2.47;;
54201;SDS011;40108;53.152;5.844;2023-07-30T06:00:25;15.40;;;2.35;;
54201;SDS011;40108;53.152;5.844;2023-07-30T06:02:51;16.13;;;2.63;;
54201;SDS011;40108;53.152;5.844;2023-07-30T06:05:17;16.75;;;3.53;;
54201;SDS011;40108;53.152;5.844;2023-07-30T06:07:43;16.77;;;3.33;;
54201;SDS011;40108;53.152;5.844;2023-07-30T06:10:08;16.10;;;2.90;;
54201;SDS011;40108;53.152;5.844;2023-07-30T06:12:34;13.63;;;2.42;;
54201;SDS011;40108;53.152;5.844;2023-07-30T06:15:00;12.75;;;2.40;;
54201;SDS011;40108;53.152;5.844;2023-07-30T06:17:26;16.65;;;2.60;;
54201;SDS011;40108;53.152;5.844;2023-07-30T06:19:51;15.13;;;2.35;;
54201;SDS011;40108;53.152;5.844;2023-07-30T06:22:17;15.68;;;2.55;;
54201;SDS011;40108;53.152;5.844;2023-07-30T06:24:43;17.58;;;2.38;;
54201;SDS011;40108;53.152;5.844;2023-07-30T06:27:09;10.88;;;2.22;;
54201;SDS011;40108;53.152;5.844;2023-07-30T06:29:35;13.65;;;2.35;;
54201;SDS011;40108;53.152;5.844;2023-07-30T06:32:01;15.40;;;2.75;;
54201;SDS011;40108;53.152;5.844;2023-07-30T06:34:27;12.23;;;2.08;;
54201;SDS011;40108;53.152;5.844;2023-07-30T06:36:53;15.32;;;2.72;;
54201;SDS011;40108;53.152;5.844;2023-07-30T06:39:19;13.50;;;2.88;;
54201;SDS011;40108;53.152;5.844;2023-07-30T06:41:45;14.15;;;3.05;;
54201;SDS011;40108;53.152;5.844;2023-07-30T06:44:11;20.65;;;2.72;;
54201;SDS011;40108;53.152;5.844;2023-07-30T06:46:36;12.15;;;2.38;;
54201;SDS011;40108;53.152;5.844;2023-07-30T06:49:02;20.52;;;2.67;;
54201;SDS011;40108;53.152;5.844;2023-07-30T06:51:28;15.07;;;2.53;;
54201;SDS011;40108;53.152;5.844;2023-07-30T06:53:54;13.68;;;2.40;;
54201;SDS011;40108;53.152;5.844;2023-07-30T06:56:20;12.77;;;2.42;;
54201;SDS011;40108;53.152;5.844;2023-07-30T06:58:46;9.63;;;2.08;;
54201;SDS011;40108;53.152;5.844;2023-07-30T07:01:12;17.63;;;2.50;;
54201;SDS011;40108;53.152;5.844;2023-07-30T07:03:37;9.65;;;2.10;;
54201;SDS011;40108;53.152;5.844;2023-07-30T07:06:03;13.60;;;2.58;;
54201;SDS011;40108;53.152;5.844;2023-07-30T07:08:29;16.75;;;2.42;;
54201;SDS011;40108;53.152;5.844;2023-07-30T07:10:55;13.35;;;2.10;;
54201;SDS011;40108;53.152;5.844;2023-07-30T07:13:20;16.67;;;2.70;;
54201;SDS011;40108;53.152;5.844;2023-07-30T07:15:46;19.73;;;2.85;;
54201;SDS011;40108;53.152;5.844;2023-07-30T07:18:12;11.48;;;2.15;;
54201;SDS011;40108;53.152;5.844;2023-07-30T07:20:37;15.95;;;2.10;;
54201;SDS011;40108;53.152;5.844;2023-07-30T07:23:03;13.10;;;2.13;;
54201;SDS011;40108;53.152;5.844;2023-07-30T07:25:29;18.65;;;2.33;;
54201;SDS011;40108;53.152;5.844;2023-07-30T07:27:55;14.18;;;2.33;;
54201;SDS011;40108;53.152;5.844;2023-07-30T07:30:21;13.00;;;2.42;;
54201;SDS011;40108;53.152;5.844;2023-07-30T07:32:46;14.35;;;2.30;;
54201;SDS011;40108;53.152;5.844;2023-07-30T07:35:16;13.45;;;2.50;;
54201;SDS011;40108;53.152;5.844;2023-07-30T07:37:42;13.25;;;2.60;;
54201;SDS011;40108;53.152;5.844;2023-07-30T07:40:08;24.58;;;2.85;;
54201;SDS011;40108;53.152;5.844;2023-07-30T07:42:37;17.67;;;3.25;;
54201;SDS011;40108;53.152;5.844;2023-07-30T07:45:04;16.45;;;2.92;;
54201;SDS011;40108;53.152;5.844;2023-07-30T07:47:31;18.55;;;2.72;;
54201;SDS011;40108;53.152;5.844;2023-07-30T07:49:56;18.00;;;2.35;;
54201;SDS011;40108;53.152;5.844;2023-07-30T07:52:22;14.52;;;2.38;;
54201;SDS011;40108;53.152;5.844;2023-07-30T07:54:48;13.93;;;2.80;;
54201;SDS011;40108;53.152;5.844;2023-07-30T07:57:13;16.65;;;3.35;;
54201;SDS011;40108;53.152;5.844;2023-07-30T07:59:39;13.88;;;2.75;;
54201;SDS011;40108;53.152;5.844;2023-07-30T08:02:06;21.77;;;3.22;;
54201;SDS011;40108;53.152;5.844;2023-07-30T08:04:32;14.38;;;2.60;;
54201;SDS011;40108;53.152;5.844;2023-07-30T08:06:58;14.50;;;2.60;;
54201;SDS011;40108;53.152;5.844;2023-07-30T08:09:28;12.88;;;2.63;;
54201;SDS011;40108;53.152;5.844;2023-07-30T08:11:54;15.48;;;2.40;;
54201;SDS011;40108;53.152;5.844;2023-07-30T08:14:20;13.40;;;2.40;;
54201;SDS011;40108;53.152;5.844;2023-07-30T08:16:45;13.27;;;2.42;;
54201;SDS011;40108;53.152;5.844;2023-07-30T08:19:11;16.30;;;2.30;;
54201;SDS011;40108;53.152;5.844;2023-07-30T08:21:37;16.00;;;2.58;;
54201;SDS011;40108;53.152;5.844;2023-07-30T08:24:02;13.60;;;2.40;;
54201;SDS011;40108;53.152;5.844;2023-07-30T08:26:28;12.65;;;2.38;;
54201;SDS011;40108;53.152;5.844;2023-07-30T08:28:54;12.80;;;2.20;;
54201;SDS011;40108;53.152;5.844;2023-07-30T08:31:20;11.75;;;2.50;;
54201;SDS011;40108;53.152;5.844;2023-07-30T08:33:46;8.15;;;1.65;;
54201;SDS011;40108;53.152;5.844;2023-07-30T08:36:11;15.77;;;2.42;;
54201;SDS011;40108;53.152;5.844;2023-07-30T08:38:37;8.60;;;2.13;;
54201;SDS011;40108;53.152;5.844;2023-07-30T08:41:03;13.15;;;2.33;;
54201;SDS011;40108;53.152;5.844;2023-07-30T08:43:28;8.82;;;1.77;;
54201;SDS011;40108;53.152;5.844;2023-07-30T08:45:55;12.82;;;2.13;;
54201;SDS011;40108;53.152;5.844;2023-07-30T08:48:20;17.77;;;3.22;;
54201;SDS011;40108;53.152;5.844;2023-07-30T08:50:46;16.17;;;2.38;;
54201;SDS011;40108;53.152;5.844;2023-07-30T08:53:13;10.88;;;1.92;;
54201;SDS011;40108;53.152;5.844;2023-07-30T08:55:40;10.63;;;2.22;;
54201;SDS011;40108;53.152;5.844;2023-07-30T08:58:06;17.65;;;2.75;;
54201;SDS011;40108;53.152;5.844;2023-07-30T09:00:34;10.77;;;2.30;;
54201;SDS011;40108;53.152;5.844;2023-07-30T09:03:03;10.30;;;2.00;;
54201;SDS011;40108;53.152;5.844;2023-07-30T09:05:29;10.82;;;2.58;;
54201;SDS011;40108;53.152;5.844;2023-07-30T09:07:56;12.55;;;2.10;;
54201;SDS011;40108;53.152;5.844;2023-07-30T09:10:22;7.75;;;1.70;;
54201;SDS011;40108;53.152;5.844;2023-07-30T09:12:52;11.65;;;1.92;;
54201;SDS011;40108;53.152;5.844;2023-07-30T09:15:20;11.40;;;1.80;;
54201;SDS011;40108;53.152;5.844;2023-07-30T09:17:55;13.27;;;2.22;;
54201;SDS011;40108;53.152;5.844;2023-07-30T09:20:21;10.57;;;2.08;;
54201;SDS011;40108;53.152;5.844;2023-07-30T09:22:46;13.63;;;2.10;;
54201;SDS011;40108;53.152;5.844;2023-07-30T09:25:17;15.73;;;2.35;;
54201;SDS011;40108;53.152;5.844;2023-07-30T09:27:52;8.80;;;2.22;;
54201;SDS011;40108;53.152;5.844;2023-07-30T09:30:22;13.43;;;2.28;;
54201;SDS011;40108;53.152;5.844;2023-07-30T09:32:51;13.98;;;2.22;;
54201;SDS011;40108;53.152;5.844;2023-07-30T09:35:20;14.02;;;2.38;;
54201;SDS011;40108;53.152;5.844;2023-07-30T09:37:47;11.48;;;1.60;;
54201;SDS011;40108;53.152;5.844;2023-07-30T09:40:14;11.98;;;2.40;;
54201;SDS011;40108;53.152;5.844;2023-07-30T09:42:44;13.20;;;1.98;;
54201;SDS011;40108;53.152;5.844;2023-07-30T09:45:17;8.37;;;1.60;;
54201;SDS011;40108;53.152;5.844;2023-07-30T09:47:49;13.38;;;1.80;;
54201;SDS011;40108;53.152;5.844;2023-07-30T09:50:16;10.57;;;2.25;;
54201;SDS011;40108;53.152;5.844;2023-07-30T09:52:42;11.60;;;2.10;;
54201;SDS011;40108;53.152;5.844;2023-07-30T09:55:09;15.23;;;2.42;;
54201;SDS011;40108;53.152;5.844;2023-07-30T09:57:36;9.90;;;1.70;;
54201;SDS011;40108;53.152;5.844;2023-07-30T10:00:03;12.27;;;2.17;;
54201;SDS011;40108;53.152;5.844;2023-07-30T10:02:30;15.07;;;2.22;;
54201;SDS011;40108;53.152;5.844;2023-07-30T10:05:00;13.13;;;2.20;;
54201;SDS011;40108;53.152;5.844;2023-07-30T10:07:28;14.45;;;2.10;;
54201;SDS011;40108;53.152;5.844;2023-07-30T10:09:55;13.40;;;2.38;;
54201;SDS011;40108;53.152;5.844;2023-07-30T10:12:27;15.73;;;2.40;;
54201;SDS011;40108;53.152;5.844;2023-07-30T10:14:55;14.55;;;2.30;;
54201;SDS011;40108;53.152;5.844;2023-07-30T10:17:21;12.43;;;2.20;;
54201;SDS011;40108;53.152;5.844;2023-07-30T10:19:47;12.00;;;2.28;;
54201;SDS011;40108;53.152;5.844;2023-07-30T10:25:04;13.80;;;2.55;;
54201;SDS011;40108;53.152;5.844;2023-07-30T10:28:01;12.50;;;2.15;;
54201;SDS011;40108;53.152;5.844;2023-07-30T10:30:31;13.15;;;2.20;;
54201;SDS011;40108;53.152;5.844;2023-07-30T10:32:59;11.63;;;2.20;;
54201;SDS011;40108;53.152;5.844;2023-07-30T10:38:11;15.75;;;2.38;;
54201;SDS011;40108;53.152;5.844;2023-07-30T10:43:47;13.30;;;2.13;;
54201;SDS011;40108;53.152;5.844;2023-07-30T10:46:15;8.80;;;1.80;;
54201;SDS011;40108;53.152;5.844;2023-07-30T10:48:43;13.23;;;2.58;;
54201;SDS011;40108;53.152;5.844;2023-07-30T10:51:16;11.80;;;2.38;;
54201;SDS011;40108;53.152;5.844;2023-07-30T10:53:44;11.55;;;1.95;;
54201;SDS011;40108;53.152;5.844;2023-07-30T10:56:11;11.15;;;2.20;;
54201;SDS011;40108;53.152;5.844;2023-07-30T10:58:38;12.60;;;2.30;;
54201;SDS011;40108;53.152;5.844;2023-07-30T11:01:05;14.73;;;2.47;;
54201;SDS011;40108;53.152;5.844;2023-07-30T11:03:32;14.38;;;2.08;;
54201;SDS011;40108;53.152;5.844;2023-07-30T11:05:58;11.38;;;2.15;;
54201;SDS011;40108;53.152;5.844;2023-07-30T11:11:03;14.32;;;2.58;;
54201;SDS011;40108;53.152;5.844;2023-07-30T11:13:34;9.60;;;2.05;;
54201;SDS011;40108;53.152;5.844;2023-07-30T11:16:13;6.65;;;1.63;;
54201;SDS011;40108;53.152;5.844;2023-07-30T11:18:40;11.38;;;1.80;;
54201;SDS011;40108;53.152;5.844;2023-07-30T11:21:08;10.57;;;1.80;;
54201;SDS011;40108;53.152;5.844;2023-07-30T11:23:35;8.48;;;1.80;;
54201;SDS011;40108;53.152;5.844;2023-07-30T11:26:04;8.98;;;1.85;;
54201;SDS011;40108;53.152;5.844;2023-07-30T11:28:32;10.55;;;2.33;;
54201;SDS011;40108;53.152;5.844;2023-07-30T11:30:59;13.00;;;1.92;;
54201;SDS011;40108;53.152;5.844;2023-07-30T11:33:26;8.02;;;1.70;;
54201;SDS011;40108;53.152;5.844;2023-07-30T11:35:56;8.82;;;1.75;;
54201;SDS011;40108;53.152;5.844;2023-07-30T11:38:25;10.38;;;2.00;;
54201;SDS011;40108;53.152;5.844;2023-07-30T11:40:53;12.35;;;1.88;;
54201;SDS011;40108;53.152;5.844;2023-07-30T11:43:20;7.80;;;1.42;;
54201;SDS011;40108;53.152;5.844;2023-07-30T11:45:47;13.52;;;2.15;;
54201;SDS011;40108;53.152;5.844;2023-07-30T11:48:13;9.32;;;1.60;;
54201;SDS011;40108;53.152;5.844;2023-07-30T11:50:46;7.80;;;1.50;;
54201;SDS011;40108;53.152;5.844;2023-07-30T11:53:12;8.65;;;1.90;;
54201;SDS011;40108;53.152;5.844;2023-07-30T11:55:39;11.57;;;1.75;;
54201;SDS011;40108;53.152;5.844;2023-07-30T11:58:07;7.65;;;1.50;;
54201;SDS011;40108;53.152;5.844;2023-07-30T12:00:37;5.88;;;1.35;;
54201;SDS011;40108;53.152;5.844;2023-07-30T12:03:05;7.85;;;1.40;;
54201;SDS011;40108;53.152;5.844;2023-07-30T12:05:37;8.32;;;1.83;;
54201;SDS011;40108;53.152;5.844;2023-07-30T12:08:04;8.65;;;1.33;;
54201;SDS011;40108;53.152;5.844;2023-07-30T12:10:46;9.25;;;1.80;;
54201;SDS011;40108;53.152;5.844;2023-07-30T12:13:17;11.10;;;2.00;;
54201;SDS011;40108;53.152;5.844;2023-07-30T12:15:51;9.25;;;1.70;;
54201;SDS011;40108;53.152;5.844;2023-07-30T12:18:18;8.57;;;1.33;;
54201;SDS011;40108;53.152;5.844;2023-07-30T12:20:44;8.27;;;1.63;;
54201;SDS011;40108;53.152;5.844;2023-07-30T12:23:11;7.30;;;1.52;;
54201;SDS011;40108;53.152;5.844;2023-07-30T12:25:37;9.85;;;2.10;;
54201;SDS011;40108;53.152;5.844;2023-07-30T12:28:03;10.00;;;3.88;;
54201;SDS011;40108;53.152;5.844;2023-07-30T12:30:29;11.40;;;3.10;;
54201;SDS011;40108;53.152;5.844;2023-07-30T12:32:55;8.52;;;2.92;;
54201;SDS011;40108;53.152;5.844;2023-07-30T12:35:21;8.63;;;2.65;;
54201;SDS011;40108;53.152;5.844;2023-07-30T12:37:47;10.45;;;1.90;;
54201;SDS011;40108;53.152;5.844;2023-07-30T12:40:13;10.25;;;2.45;;
54201;SDS011;40108;53.152;5.844;2023-07-30T12:42:39;8.65;;;1.60;;
54201;SDS011;40108;53.152;5.844;2023-07-30T12:45:04;6.90;;;1.80;;
54201;SDS011;40108;53.152;5.844;2023-07-30T12:47:31;10.98;;;1.98;;
54201;SDS011;40108;53.152;5.844;2023-07-30T12:50:00;12.13;;;2.53;;
54201;SDS011;40108;53.152;5.844;2023-07-30T12:52:26;8.05;;;1.52;;
54201;SDS011;40108;53.152;5.844;2023-07-30T12:54:52;9.40;;;2.20;;
54201;SDS011;40108;53.152;5.844;2023-07-30T12:57:18;9.70;;;1.77;;
54201;SDS011;40108;53.152;5.844;2023-07-30T12:59:43;5.63;;;1.50;;
54201;SDS011;40108;53.152;5.844;2023-07-30T13:02:09;9.10;;;1.98;;
54201;SDS011;40108;53.152;5.844;2023-07-30T13:04:35;7.38;;;1.60;;
54201;SDS011;40108;53.152;5.844;2023-07-30T13:07:01;5.80;;;1.33;;
54201;SDS011;40108;53.152;5.844;2023-07-30T13:09:27;10.32;;;1.80;;
54201;SDS011;40108;53.152;5.844;2023-07-30T13:11:53;5.57;;;1.30;;
54201;SDS011;40108;53.152;5.844;2023-07-30T13:14:19;3.63;;;1.15;;
54201;SDS011;40108;53.152;5.844;2023-07-30T13:16:45;6.70;;;1.38;;
54201;SDS011;40108;53.152;5.844;2023-07-30T13:19:11;9.15;;;1.55;;
54201;SDS011;40108;53.152;5.844;2023-07-30T13:21:37;8.98;;;1.50;;
54201;SDS011;40108;53.152;5.844;2023-07-30T13:24:03;12.75;;;1.77;;
54201;SDS011;40108;53.152;5.844;2023-07-30T13:26:29;7.75;;;1.65;;
54201;SDS011;40108;53.152;5.844;2023-07-30T13:28:54;9.02;;;1.50;;
54201;SDS011;40108;53.152;5.844;2023-07-30T13:31:20;8.15;;;1.50;;
54201;SDS011;40108;53.152;5.844;2023-07-30T13:33:46;11.13;;;1.88;;
54201;SDS011;40108;53.152;5.844;2023-07-30T13:36:13;7.97;;;1.40;;
54201;SDS011;40108;53.152;5.844;2023-07-30T13:38:39;11.65;;;1.95;;
54201;SDS011;40108;53.152;5.844;2023-07-30T13:41:06;6.95;;;1.30;;
54201;SDS011;40108;53.152;5.844;2023-07-30T13:43:32;10.23;;;1.50;;
54201;SDS011;40108;53.152;5.844;2023-07-30T13:45:58;5.30;;;1.17;;
54201;SDS011;40108;53.152;5.844;2023-07-30T13:48:24;8.57;;;1.58;;
54201;SDS011;40108;53.152;5.844;2023-07-30T13:50:50;9.38;;;1.40;;
54201;SDS011;40108;53.152;5.844;2023-07-30T13:53:17;8.95;;;1.63;;
54201;SDS011;40108;53.152;5.844;2023-07-30T13:55:43;9.95;;;1.50;;
54201;SDS011;40108;53.152;5.844;2023-07-30T13:58:09;9.02;;;1.33;;
54201;SDS011;40108;53.152;5.844;2023-07-30T14:00:35;7.68;;;1.58;;
54201;SDS011;40108;53.152;5.844;2023-07-30T14:03:00;10.60;;;1.60;;
54201;SDS011;40108;53.152;5.844;2023-07-30T14:05:26;5.57;;;1.45;;
54201;SDS011;40108;53.152;5.844;2023-07-30T14:07:55;7.85;;;1.40;;
54201;SDS011;40108;53.152;5.844;2023-07-30T14:10:22;5.18;;;1.02;;
54201;SDS011;40108;53.152;5.844;2023-07-30T14:12:48;12.55;;;1.63;;
54201;SDS011;40108;53.152;5.844;2023-07-30T14:15:14;9.32;;;1.55;;
54201;SDS011;40108;53.152;5.844;2023-07-30T14:17:41;9.27;;;1.83;;
54201;SDS011;40108;53.152;5.844;2023-07-30T14:20:07;5.78;;;1.42;;
54201;SDS011;40108;53.152;5.844;2023-07-30T14:22:36;6.13;;;1.30;;
54201;SDS011;40108;53.152;5.844;2023-07-30T14:25:02;7.07;;;1.40;;
54201;SDS011;40108;53.152;5.844;2023-07-30T14:27:29;13.27;;;2.10;;
54201;SDS011;40108;53.152;5.844;2023-07-30T14:29:54;19.77;;;3.10;;
54201;SDS011;40108;53.152;5.844;2023-07-30T14:32:20;10.65;;;2.00;;
54201;SDS011;40108;53.152;5.844;2023-07-30T14:34:46;10.57;;;2.08;;
54201;SDS011;40108;53.152;5.844;2023-07-30T14:37:11;7.90;;;1.95;;
54201;SDS011;40108;53.152;5.844;2023-07-30T14:39:37;14.65;;;1.95;;
54201;SDS011;40108;53.152;5.844;2023-07-30T14:42:05;7.05;;;1.67;;
54201;SDS011;40108;53.152;5.844;2023-07-30T14:44:31;10.25;;;1.60;;
54201;SDS011;40108;53.152;5.844;2023-07-30T14:46:57;10.98;;;1.77;;
54201;SDS011;40108;53.152;5.844;2023-07-30T14:49:23;10.27;;;1.90;;